sensor_id;sensor_type;location;lat;lon;timestamp;P1;durP1;ratioP1;P2;durP2;ratioP2
24901;SDS011;31328;51.402;0.016;2023-03-01T00:02:08;10.07;;;7.70;;
24901;SDS011;31328;51.402;0.016;2023-03-01T00:04:35;11.93;;;7.00;;
24901;SDS011;31328;51.402;0.016;2023-03-01T00:07:01;12.00;;;7.53;;
24901;SDS011;31328;51.402;0.016;2023-03-01T00:09:27;10.27;;;7.00;;
24901;SDS011;31328;51.402;0.016;2023-03-01T00:11:54;14.20;;;7.57;;
24901;SDS011;31328;51.402;0.016;2023-03-01T00:14:20;10.13;;;6.90;;
24901;SDS011;31328;51.402;0.016;2023-03-01T00:16:46;9.97;;;7.27;;
24901;SDS011;31328;51.402;0.016;2023-03-01T00:19:14;12.00;;;7.00;;
24901;SDS011;31328;51.402;0.016;2023-03-01T00:21:42;12.77;;;7.90;;
24901;SDS011;31328;51.402;0.016;2023-03-01T00:24:09;13.60;;;8.53;;
24901;SDS011;31328;51.402;0.016;2023-03-01T00:26:36;12.63;;;7.77;;
24901;SDS011;31328;51.402;0.016;2023-03-01T00:29:02;12.63;;;7.83;;
24901;SDS011;31328;51.402;0.016;2023-03-01T00:31:29;12.23;;;7.80;;
24901;SDS011;31328;51.402;0.016;2023-03-01T00:33:58;11.87;;;7.87;;
24901;SDS011;31328;51.402;0.016;2023-03-01T00:36:31;11.40;;;7.33;;
24901;SDS011;31328;51.402;0.016;2023-03-01T00:38:59;14.83;;;8.53;;
24901;SDS011;31328;51.402;0.016;2023-03-01T00:41:26;12.90;;;7.17;;
24901;SDS011;31328;51.402;0.016;2023-03-01T00:43:52;12.50;;;7.83;;
24901;SDS011;31328;51.402;0.016;2023-03-01T00:46:21;13.73;;;9.33;;
24901;SDS011;31328;51.402;0.016;2023-03-01T00:48:49;13.83;;;8.57;;
24901;SDS011;31328;51.402;0.016;2023-03-01T00:51:20;14.13;;;9.13;;
24901;SDS011;31328;51.402;0.016;2023-03-01T00:53:52;14.53;;;9.47;;
24901;SDS011;31328;51.402;0.016;2023-03-01T00:56:19;15.47;;;9.90;;
24901;SDS011;31328;51.402;0.016;2023-03-01T00:58:46;15.47;;;9.43;;
24901;SDS011;31328;51.402;0.016;2023-03-01T01:01:14;14.20;;;10.20;;
24901;SDS011;31328;51.402;0.016;2023-03-01T01:03:49;13.83;;;9.17;;
24901;SDS011;31328;51.402;0.016;2023-03-01T01:06:21;14.67;;;9.87;;
24901;SDS011;31328;51.402;0.016;2023-03-01T01:08:50;13.60;;;8.63;;
24901;SDS011;31328;51.402;0.016;2023-03-01T01:11:17;15.63;;;9.80;;
24901;SDS011;31328;51.402;0.016;2023-03-01T01:13:45;15.23;;;9.27;;
24901;SDS011;31328;51.402;0.016;2023-03-01T01:16:13;15.20;;;9.00;;
24901;SDS011;31328;51.402;0.016;2023-03-01T01:18:40;15.93;;;10.30;;
24901;SDS011;31328;51.402;0.016;2023-03-01T01:21:09;18.17;;;9.90;;
24901;SDS011;31328;51.402;0.016;2023-03-01T01:23:37;13.70;;;9.97;;
24901;SDS011;31328;51.402;0.016;2023-03-01T01:26:27;15.23;;;9.23;;
24901;SDS011;31328;51.402;0.016;2023-03-01T01:28:53;15.57;;;9.70;;
24901;SDS011;31328;51.402;0.016;2023-03-01T01:31:20;12.10;;;9.07;;
24901;SDS011;31328;51.402;0.016;2023-03-01T01:33:49;15.40;;;8.83;;
24901;SDS011;31328;51.402;0.016;2023-03-01T01:36:16;17.47;;;9.37;;
24901;SDS011;31328;51.402;0.016;2023-03-01T01:38:43;14.13;;;9.20;;
24901;SDS011;31328;51.402;0.016;2023-03-01T01:41:10;15.20;;;8.80;;
24901;SDS011;31328;51.402;0.016;2023-03-01T01:43:39;14.67;;;8.57;;
24901;SDS011;31328;51.402;0.016;2023-03-01T01:49:00;13.57;;;8.13;;
24901;SDS011;31328;51.402;0.016;2023-03-01T01:51:32;13.43;;;8.60;;
24901;SDS011;31328;51.402;0.016;2023-03-01T01:54:14;13.23;;;8.40;;
24901;SDS011;31328;51.402;0.016;2023-03-01T01:57:07;12.83;;;8.57;;
24901;SDS011;31328;51.402;0.016;2023-03-01T01:59:37;12.80;;;8.83;;
24901;SDS011;31328;51.402;0.016;2023-03-01T02:02:04;13.43;;;8.83;;
24901;SDS011;31328;51.402;0.016;2023-03-01T02:04:31;12.17;;;8.10;;
24901;SDS011;31328;51.402;0.016;2023-03-01T02:07:02;13.93;;;8.80;;
24901;SDS011;31328;51.402;0.016;2023-03-01T02:09:39;15.00;;;9.77;;
24901;SDS011;31328;51.402;0.016;2023-03-01T02:12:07;13.20;;;8.80;;
24901;SDS011;31328;51.402;0.016;2023-03-01T02:14:34;12.57;;;7.97;;
24901;SDS011;31328;51.402;0.016;2023-03-01T02:17:00;13.40;;;8.57;;
24901;SDS011;31328;51.402;0.016;2023-03-01T02:22:20;11.93;;;7.40;;
24901;SDS011;31328;51.402;0.016;2023-03-01T02:27:20;11.23;;;5.70;;
24901;SDS011;31328;51.402;0.016;2023-03-01T02:29:52;10.77;;;5.40;;
24901;SDS011;31328;51.402;0.016;2023-03-01T02:32:18;7.80;;;4.00;;
24901;SDS011;31328;51.402;0.016;2023-03-01T02:34:54;7.33;;;3.80;;
24901;SDS011;31328;51.402;0.016;2023-03-01T02:37:21;6.90;;;3.60;;
24901;SDS011;31328;51.402;0.016;2023-03-01T02:39:52;5.73;;;3.33;;
24901;SDS011;31328;51.402;0.016;2023-03-01T02:42:26;6.27;;;2.73;;
24901;SDS011;31328;51.402;0.016;2023-03-01T02:44:56;6.27;;;2.87;;
24901;SDS011;31328;51.402;0.016;2023-03-01T02:47:23;5.60;;;3.37;;
24901;SDS011;31328;51.402;0.016;2023-03-01T02:49:49;6.30;;;3.37;;
24901;SDS011;31328;51.402;0.016;2023-03-01T02:57:31;6.93;;;3.17;;
24901;SDS011;31328;51.402;0.016;2023-03-01T03:00:02;7.97;;;2.33;;
24901;SDS011;31328;51.402;0.016;2023-03-01T03:02:47;4.40;;;2.33;;
24901;SDS011;31328;51.402;0.016;2023-03-01T03:05:23;4.93;;;2.50;;
24901;SDS011;31328;51.402;0.016;2023-03-01T03:07:55;4.70;;;2.57;;
24901;SDS011;31328;51.402;0.016;2023-03-01T03:10:24;4.30;;;2.50;;
24901;SDS011;31328;51.402;0.016;2023-03-01T03:12:57;7.10;;;2.87;;
24901;SDS011;31328;51.402;0.016;2023-03-01T03:15:25;4.90;;;2.43;;
24901;SDS011;31328;51.402;0.016;2023-03-01T03:17:54;8.77;;;3.00;;
24901;SDS011;31328;51.402;0.016;2023-03-01T03:20:23;6.83;;;2.97;;
24901;SDS011;31328;51.402;0.016;2023-03-01T03:22:51;5.80;;;2.40;;
24901;SDS011;31328;51.402;0.016;2023-03-01T03:25:20;4.30;;;2.07;;
24901;SDS011;31328;51.402;0.016;2023-03-01T03:27:50;5.93;;;2.70;;
24901;SDS011;31328;51.402;0.016;2023-03-01T03:30:23;7.73;;;2.70;;
24901;SDS011;31328;51.402;0.016;2023-03-01T03:32:54;4.27;;;2.60;;
24901;SDS011;31328;51.402;0.016;2023-03-01T03:35:31;5.33;;;2.20;;
24901;SDS011;31328;51.402;0.016;2023-03-01T03:38:01;5.27;;;2.40;;
24901;SDS011;31328;51.402;0.016;2023-03-01T03:40:38;4.23;;;2.40;;
24901;SDS011;31328;51.402;0.016;2023-03-01T03:43:09;7.38;;;2.38;;
24901;SDS011;31328;51.402;0.016;2023-03-01T03:45:40;5.05;;;2.60;;
24901;SDS011;31328;51.402;0.016;2023-03-01T03:48:07;4.63;;;2.13;;
24901;SDS011;31328;51.402;0.016;2023-03-01T03:50:38;4.67;;;2.07;;
24901;SDS011;31328;51.402;0.016;2023-03-01T03:53:09;3.87;;;2.50;;
24901;SDS011;31328;51.402;0.016;2023-03-01T03:55:37;5.50;;;2.23;;
24901;SDS011;31328;51.402;0.016;2023-03-01T03:58:07;3.10;;;1.33;;
24901;SDS011;31328;51.402;0.016;2023-03-01T04:00:36;6.10;;;2.10;;
24901;SDS011;31328;51.402;0.016;2023-03-01T04:03:05;3.20;;;1.97;;
24901;SDS011;31328;51.402;0.016;2023-03-01T04:05:32;4.77;;;2.63;;
24901;SDS011;31328;51.402;0.016;2023-03-01T04:07:59;7.13;;;2.37;;
24901;SDS011;31328;51.402;0.016;2023-03-01T04:10:35;2.80;;;1.90;;
24901;SDS011;31328;51.402;0.016;2023-03-01T04:13:06;5.70;;;1.80;;
24901;SDS011;31328;51.402;0.016;2023-03-01T04:15:36;3.87;;;2.03;;
24901;SDS011;31328;51.402;0.016;2023-03-01T04:18:03;3.20;;;2.40;;
24901;SDS011;31328;51.402;0.016;2023-03-01T04:20:31;3.87;;;1.70;;
24901;SDS011;31328;51.402;0.016;2023-03-01T04:23:02;3.43;;;2.03;;
24901;SDS011;31328;51.402;0.016;2023-03-01T04:26:02;7.00;;;2.13;;
24901;SDS011;31328;51.402;0.016;2023-03-01T04:28:29;3.13;;;1.93;;
24901;SDS011;31328;51.402;0.016;2023-03-01T04:30:57;3.70;;;2.00;;
24901;SDS011;31328;51.402;0.016;2023-03-01T04:33:24;2.57;;;1.53;;
24901;SDS011;31328;51.402;0.016;2023-03-01T04:35:51;2.20;;;1.77;;
24901;SDS011;31328;51.402;0.016;2023-03-01T04:38:18;3.57;;;1.80;;
24901;SDS011;31328;51.402;0.016;2023-03-01T04:40:45;3.23;;;1.90;;
24901;SDS011;31328;51.402;0.016;2023-03-01T04:43:12;4.50;;;1.70;;
24901;SDS011;31328;51.402;0.016;2023-03-01T04:45:43;2.87;;;1.97;;
24901;SDS011;31328;51.402;0.016;2023-03-01T04:48:09;3.90;;;1.80;;
24901;SDS011;31328;51.402;0.016;2023-03-01T04:50:36;3.53;;;1.70;;
24901;SDS011;31328;51.402;0.016;2023-03-01T04:53:02;2.27;;;1.80;;
24901;SDS011;31328;51.402;0.016;2023-03-01T04:55:29;3.60;;;1.70;;
24901;SDS011;31328;51.402;0.016;2023-03-01T04:57:55;2.93;;;1.67;;
24901;SDS011;31328;51.402;0.016;2023-03-01T05:00:22;2.53;;;1.53;;
24901;SDS011;31328;51.402;0.016;2023-03-01T05:02:49;2.43;;;1.50;;
24901;SDS011;31328;51.402;0.016;2023-03-01T05:05:22;3.93;;;1.37;;
24901;SDS011;31328;51.402;0.016;2023-03-01T05:07:51;6.93;;;3.33;;
24901;SDS011;31328;51.402;0.016;2023-03-01T05:10:19;2.30;;;1.60;;
24901;SDS011;31328;51.402;0.016;2023-03-01T05:12:45;2.63;;;2.10;;
24901;SDS011;31328;51.402;0.016;2023-03-01T05:15:12;2.87;;;1.87;;
24901;SDS011;31328;51.402;0.016;2023-03-01T05:17:38;2.90;;;1.77;;
24901;SDS011;31328;51.402;0.016;2023-03-01T05:20:05;3.30;;;1.40;;
24901;SDS011;31328;51.402;0.016;2023-03-01T05:22:34;3.07;;;1.70;;
24901;SDS011;31328;51.402;0.016;2023-03-01T05:25:02;2.33;;;1.50;;
24901;SDS011;31328;51.402;0.016;2023-03-01T05:27:29;2.43;;;1.33;;
24901;SDS011;31328;51.402;0.016;2023-03-01T05:29:56;4.37;;;1.87;;
24901;SDS011;31328;51.402;0.016;2023-03-01T05:32:22;4.87;;;1.63;;
24901;SDS011;31328;51.402;0.016;2023-03-01T05:34:48;2.90;;;1.80;;
24901;SDS011;31328;51.402;0.016;2023-03-01T05:37:14;2.30;;;1.70;;
24901;SDS011;31328;51.402;0.016;2023-03-01T05:39:41;3.07;;;2.03;;
24901;SDS011;31328;51.402;0.016;2023-03-01T05:42:10;2.70;;;1.87;;
24901;SDS011;31328;51.402;0.016;2023-03-01T05:44:37;4.87;;;1.80;;
24901;SDS011;31328;51.402;0.016;2023-03-01T05:47:04;4.13;;;1.50;;
24901;SDS011;31328;51.402;0.016;2023-03-01T05:49:31;4.70;;;1.80;;
24901;SDS011;31328;51.402;0.016;2023-03-01T05:51:57;1.80;;;1.37;;
24901;SDS011;31328;51.402;0.016;2023-03-01T05:54:24;2.67;;;1.90;;
24901;SDS011;31328;51.402;0.016;2023-03-01T05:56:50;6.00;;;2.70;;
24901;SDS011;31328;51.402;0.016;2023-03-01T05:59:16;2.63;;;1.97;;
24901;SDS011;31328;51.402;0.016;2023-03-01T06:01:43;3.80;;;2.00;;
24901;SDS011;31328;51.402;0.016;2023-03-01T06:04:09;3.87;;;2.03;;
24901;SDS011;31328;51.402;0.016;2023-03-01T06:06:36;2.63;;;1.60;;
24901;SDS011;31328;51.402;0.016;2023-03-01T06:09:06;2.63;;;1.80;;
24901;SDS011;31328;51.402;0.016;2023-03-01T06:11:35;3.20;;;1.77;;
24901;SDS011;31328;51.402;0.016;2023-03-01T06:14:02;2.80;;;2.00;;
24901;SDS011;31328;51.402;0.016;2023-03-01T06:16:29;5.33;;;1.80;;
24901;SDS011;31328;51.402;0.016;2023-03-01T06:18:55;3.70;;;1.90;;
24901;SDS011;31328;51.402;0.016;2023-03-01T06:21:22;4.03;;;2.17;;
24901;SDS011;31328;51.402;0.016;2023-03-01T06:23:48;3.60;;;2.03;;
24901;SDS011;31328;51.402;0.016;2023-03-01T06:26:14;3.77;;;1.90;;
24901;SDS011;31328;51.402;0.016;2023-03-01T06:28:41;5.97;;;2.60;;
24901;SDS011;31328;51.402;0.016;2023-03-01T06:31:07;3.37;;;2.70;;
24901;SDS011;31328;51.402;0.016;2023-03-01T06:33:34;2.23;;;1.80;;
24901;SDS011;31328;51.402;0.016;2023-03-01T06:36:01;3.17;;;2.10;;
24901;SDS011;31328;51.402;0.016;2023-03-01T06:38:28;4.83;;;2.63;;
24901;SDS011;31328;51.402;0.016;2023-03-01T06:40:54;4.70;;;2.87;;
24901;SDS011;31328;51.402;0.016;2023-03-01T06:43:22;5.73;;;2.80;;
24901;SDS011;31328;51.402;0.016;2023-03-01T06:45:49;4.10;;;2.83;;
24901;SDS011;31328;51.402;0.016;2023-03-01T06:48:16;4.30;;;3.00;;
24901;SDS011;31328;51.402;0.016;2023-03-01T06:50:43;4.73;;;2.70;;
24901;SDS011;31328;51.402;0.016;2023-03-01T06:53:09;5.77;;;2.40;;
24901;SDS011;31328;51.402;0.016;2023-03-01T06:55:35;4.67;;;2.60;;
24901;SDS011;31328;51.402;0.016;2023-03-01T06:58:02;5.07;;;2.90;;
24901;SDS011;31328;51.402;0.016;2023-03-01T07:00:29;4.80;;;2.73;;
24901;SDS011;31328;51.402;0.016;2023-03-01T07:02:58;4.93;;;2.50;;
24901;SDS011;31328;51.402;0.016;2023-03-01T07:05:25;4.77;;;2.47;;
24901;SDS011;31328;51.402;0.016;2023-03-01T07:07:52;3.37;;;2.07;;
24901;SDS011;31328;51.402;0.016;2023-03-01T07:10:19;6.60;;;2.70;;
24901;SDS011;31328;51.402;0.016;2023-03-01T07:12:46;3.77;;;2.10;;
24901;SDS011;31328;51.402;0.016;2023-03-01T07:15:12;4.17;;;2.17;;
24901;SDS011;31328;51.402;0.016;2023-03-01T07:17:40;3.77;;;2.27;;
24901;SDS011;31328;51.402;0.016;2023-03-01T07:20:07;3.07;;;1.90;;
24901;SDS011;31328;51.402;0.016;2023-03-01T07:22:33;8.23;;;2.90;;
24901;SDS011;31328;51.402;0.016;2023-03-01T07:25:00;3.90;;;1.77;;
24901;SDS011;31328;51.402;0.016;2023-03-01T07:27:26;4.80;;;1.90;;
24901;SDS011;31328;51.402;0.016;2023-03-01T07:29:52;3.87;;;1.73;;
24901;SDS011;31328;51.402;0.016;2023-03-01T07:32:18;5.20;;;2.43;;
24901;SDS011;31328;51.402;0.016;2023-03-01T07:34:45;3.10;;;1.60;;
24901;SDS011;31328;51.402;0.016;2023-03-01T07:37:11;4.67;;;1.63;;
24901;SDS011;31328;51.402;0.016;2023-03-01T07:39:37;3.77;;;1.60;;
24901;SDS011;31328;51.402;0.016;2023-03-01T07:42:04;3.93;;;1.90;;
24901;SDS011;31328;51.402;0.016;2023-03-01T07:44:30;4.13;;;1.73;;
24901;SDS011;31328;51.402;0.016;2023-03-01T07:46:56;2.73;;;1.70;;
24901;SDS011;31328;51.402;0.016;2023-03-01T07:49:23;3.93;;;1.43;;
24901;SDS011;31328;51.402;0.016;2023-03-01T07:51:52;2.83;;;1.40;;
24901;SDS011;31328;51.402;0.016;2023-03-01T07:54:18;4.50;;;1.53;;
24901;SDS011;31328;51.402;0.016;2023-03-01T07:56:45;4.30;;;1.53;;
24901;SDS011;31328;51.402;0.016;2023-03-01T07:59:11;4.07;;;1.63;;
24901;SDS011;31328;51.402;0.016;2023-03-01T08:01:37;6.63;;;2.03;;
24901;SDS011;31328;51.402;0.016;2023-03-01T08:04:04;2.57;;;1.53;;
24901;SDS011;31328;51.402;0.016;2023-03-01T08:06:33;2.57;;;1.90;;
24901;SDS011;31328;51.402;0.016;2023-03-01T08:09:00;4.37;;;2.07;;
24901;SDS011;31328;51.402;0.016;2023-03-01T08:11:27;4.13;;;2.70;;
24901;SDS011;31328;51.402;0.016;2023-03-01T08:13:54;5.00;;;2.17;;
24901;SDS011;31328;51.402;0.016;2023-03-01T08:16:20;3.50;;;2.00;;
24901;SDS011;31328;51.402;0.016;2023-03-01T08:18:47;4.10;;;1.77;;
24901;SDS011;31328;51.402;0.016;2023-03-01T08:21:16;4.50;;;1.43;;
24901;SDS011;31328;51.402;0.016;2023-03-01T08:23:44;4.10;;;2.10;;
24901;SDS011;31328;51.402;0.016;2023-03-01T08:26:11;3.63;;;1.53;;
24901;SDS011;31328;51.402;0.016;2023-03-01T08:28:38;4.67;;;2.53;;
24901;SDS011;31328;51.402;0.016;2023-03-01T08:31:15;3.20;;;1.70;;
24901;SDS011;31328;51.402;0.016;2023-03-01T08:33:47;5.33;;;2.00;;
24901;SDS011;31328;51.402;0.016;2023-03-01T08:36:17;4.47;;;1.90;;
24901;SDS011;31328;51.402;0.016;2023-03-01T08:38:44;3.07;;;1.40;;
24901;SDS011;31328;51.402;0.016;2023-03-01T08:41:10;5.73;;;1.37;;
24901;SDS011;31328;51.402;0.016;2023-03-01T08:43:36;3.47;;;1.60;;
24901;SDS011;31328;51.402;0.016;2023-03-01T08:46:03;3.77;;;2.00;;
24901;SDS011;31328;51.402;0.016;2023-03-01T08:48:29;4.70;;;2.13;;
24901;SDS011;31328;51.402;0.016;2023-03-01T08:50:55;4.33;;;1.33;;
24901;SDS011;31328;51.402;0.016;2023-03-01T08:53:22;3.60;;;1.43;;
24901;SDS011;31328;51.402;0.016;2023-03-01T08:55:49;4.63;;;2.07;;
24901;SDS011;31328;51.402;0.016;2023-03-01T08:58:16;4.40;;;1.93;;
24901;SDS011;31328;51.402;0.016;2023-03-01T09:00:42;2.80;;;1.23;;
24901;SDS011;31328;51.402;0.016;2023-03-01T09:03:08;4.13;;;1.03;;
24901;SDS011;31328;51.402;0.016;2023-03-01T09:05:35;2.33;;;1.20;;
24901;SDS011;31328;51.402;0.016;2023-03-01T09:08:02;4.53;;;1.83;;
24901;SDS011;31328;51.402;0.016;2023-03-01T09:10:29;2.70;;;1.07;;
24901;SDS011;31328;51.402;0.016;2023-03-01T09:12:55;2.80;;;1.27;;
24901;SDS011;31328;51.402;0.016;2023-03-01T09:15:22;1.43;;;0.90;;
24901;SDS011;31328;51.402;0.016;2023-03-01T09:17:48;3.80;;;1.53;;
24901;SDS011;31328;51.402;0.016;2023-03-01T09:20:14;3.33;;;1.20;;
24901;SDS011;31328;51.402;0.016;2023-03-01T09:22:41;4.20;;;1.70;;
24901;SDS011;31328;51.402;0.016;2023-03-01T09:25:07;4.70;;;1.83;;
24901;SDS011;31328;51.402;0.016;2023-03-01T09:27:33;3.93;;;1.33;;
24901;SDS011;31328;51.402;0.016;2023-03-01T09:30:00;3.00;;;1.33;;
24901;SDS011;31328;51.402;0.016;2023-03-01T09:32:26;2.97;;;1.40;;
24901;SDS011;31328;51.402;0.016;2023-03-01T09:34:53;3.30;;;1.40;;
24901;SDS011;31328;51.402;0.016;2023-03-01T09:37:32;1.80;;;1.10;;
24901;SDS011;31328;51.402;0.016;2023-03-01T09:39:59;2.07;;;1.80;;
24901;SDS011;31328;51.402;0.016;2023-03-01T09:42:26;4.40;;;1.80;;
24901;SDS011;31328;51.402;0.016;2023-03-01T09:45:15;3.87;;;1.47;;
24901;SDS011;31328;51.402;0.016;2023-03-01T09:47:53;2.83;;;1.47;;
24901;SDS011;31328;51.402;0.016;2023-03-01T09:50:21;2.20;;;1.30;;
24901;SDS011;31328;51.402;0.016;2023-03-01T09:55:25;2.90;;;1.10;;
24901;SDS011;31328;51.402;0.016;2023-03-01T10:01:10;4.23;;;1.47;;
24901;SDS011;31328;51.402;0.016;2023-03-01T10:06:38;2.85;;;1.00;;
24901;SDS011;31328;51.402;0.016;2023-03-01T10:09:10;5.07;;;1.37;;
24901;SDS011;31328;51.402;0.016;2023-03-01T10:11:42;3.53;;;1.40;;
24901;SDS011;31328;51.402;0.016;2023-03-01T10:14:19;2.90;;;1.30;;
24901;SDS011;31328;51.402;0.016;2023-03-01T10:17:03;3.67;;;1.20;;
24901;SDS011;31328;51.402;0.016;2023-03-01T10:19:31;3.33;;;1.03;;
24901;SDS011;31328;51.402;0.016;2023-03-01T10:25:08;2.13;;;1.20;;
24901;SDS011;31328;51.402;0.016;2023-03-01T10:27:49;3.17;;;1.57;;
24901;SDS011;31328;51.402;0.016;2023-03-01T10:30:37;2.50;;;0.90;;
24901;SDS011;31328;51.402;0.016;2023-03-01T10:33:13;1.73;;;0.73;;
24901;SDS011;31328;51.402;0.016;2023-03-01T10:35:49;1.30;;;0.80;;
24901;SDS011;31328;51.402;0.016;2023-03-01T10:38:15;1.50;;;0.80;;
24901;SDS011;31328;51.402;0.016;2023-03-01T10:41:16;2.33;;;0.50;;
24901;SDS011;31328;51.402;0.016;2023-03-01T10:51:41;1.17;;;0.47;;
24901;SDS011;31328;51.402;0.016;2023-03-01T10:54:16;1.13;;;0.60;;
24901;SDS011;31328;51.402;0.016;2023-03-01T10:56:54;1.73;;;0.60;;
24901;SDS011;31328;51.402;0.016;2023-03-01T10:59:25;2.30;;;0.60;;
24901;SDS011;31328;51.402;0.016;2023-03-01T11:04:59;3.60;;;0.60;;
24901;SDS011;31328;51.402;0.016;2023-03-01T11:07:27;2.37;;;0.67;;
24901;SDS011;31328;51.402;0.016;2023-03-01T11:09:54;1.50;;;0.60;;
24901;SDS011;31328;51.402;0.016;2023-03-01T11:12:21;2.87;;;0.97;;
24901;SDS011;31328;51.402;0.016;2023-03-01T11:14:51;1.97;;;0.60;;
24901;SDS011;31328;51.402;0.016;2023-03-01T11:17:24;1.50;;;0.53;;
24901;SDS011;31328;51.402;0.016;2023-03-01T11:20:00;1.37;;;0.50;;
24901;SDS011;31328;51.402;0.016;2023-03-01T11:22:49;1.47;;;0.67;;
24901;SDS011;31328;51.402;0.016;2023-03-01T11:25:17;1.23;;;0.73;;
24901;SDS011;31328;51.402;0.016;2023-03-01T11:27:49;1.57;;;0.80;;
24901;SDS011;31328;51.402;0.016;2023-03-01T11:30:18;1.07;;;0.40;;
24901;SDS011;31328;51.402;0.016;2023-03-01T11:32:47;1.30;;;0.60;;
24901;SDS011;31328;51.402;0.016;2023-03-01T11:35:36;1.20;;;0.50;;
24901;SDS011;31328;51.402;0.016;2023-03-01T11:38:20;1.57;;;0.43;;
24901;SDS011;31328;51.402;0.016;2023-03-01T11:41:00;1.23;;;0.40;;
24901;SDS011;31328;51.402;0.016;2023-03-01T11:43:47;1.67;;;0.60;;
24901;SDS011;31328;51.402;0.016;2023-03-01T11:48:52;2.53;;;0.57;;
24901;SDS011;31328;51.402;0.016;2023-03-01T11:56:40;1.60;;;0.40;;
24901;SDS011;31328;51.402;0.016;2023-03-01T12:02:25;6.00;;;0.70;;
24901;SDS011;31328;51.402;0.016;2023-03-01T12:05:00;0.40;;;0.40;;
24901;SDS011;31328;51.402;0.016;2023-03-01T12:37:54;0.83;;;0.50;;
24901;SDS011;31328;51.402;0.016;2023-03-01T12:45:50;1.37;;;0.70;;
24901;SDS011;31328;51.402;0.016;2023-03-01T12:51:03;2.07;;;0.90;;
24901;SDS011;31328;51.402;0.016;2023-03-01T12:53:41;3.40;;;0.63;;
24901;SDS011;31328;51.402;0.016;2023-03-01T12:56:13;2.77;;;0.93;;
24901;SDS011;31328;51.402;0.016;2023-03-01T12:58:47;2.73;;;0.70;;
24901;SDS011;31328;51.402;0.016;2023-03-01T13:01:33;2.17;;;0.90;;
24901;SDS011;31328;51.402;0.016;2023-03-01T13:12:44;3.55;;;1.58;;
24901;SDS011;31328;51.402;0.016;2023-03-01T13:15:31;2.50;;;0.83;;
24901;SDS011;31328;51.402;0.016;2023-03-01T13:18:03;1.73;;;0.80;;
24901;SDS011;31328;51.402;0.016;2023-03-01T13:20:46;1.23;;;0.80;;
24901;SDS011;31328;51.402;0.016;2023-03-01T13:44:29;3.30;;;0.90;;
24901;SDS011;31328;51.402;0.016;2023-03-01T13:49:42;4.00;;;1.37;;
24901;SDS011;31328;51.402;0.016;2023-03-01T13:57:42;2.33;;;0.90;;
24901;SDS011;31328;51.402;0.016;2023-03-01T14:03:20;1.47;;;0.70;;
24901;SDS011;31328;51.402;0.016;2023-03-01T14:08:33;5.57;;;1.13;;
24901;SDS011;31328;51.402;0.016;2023-03-01T14:16:57;0.90;;;0.63;;
24901;SDS011;31328;51.402;0.016;2023-03-01T14:19:38;1.77;;;0.70;;
24901;SDS011;31328;51.402;0.016;2023-03-01T14:24:49;1.13;;;0.67;;
24901;SDS011;31328;51.402;0.016;2023-03-01T14:27:18;3.03;;;1.30;;
24901;SDS011;31328;51.402;0.016;2023-03-01T14:29:53;3.20;;;1.20;;
24901;SDS011;31328;51.402;0.016;2023-03-01T14:32:25;2.00;;;0.70;;
24901;SDS011;31328;51.402;0.016;2023-03-01T14:34:54;2.30;;;0.90;;
24901;SDS011;31328;51.402;0.016;2023-03-01T14:37:28;1.33;;;0.87;;
24901;SDS011;31328;51.402;0.016;2023-03-01T14:39:57;1.80;;;1.20;;
24901;SDS011;31328;51.402;0.016;2023-03-01T14:42:27;3.00;;;1.20;;
24901;SDS011;31328;51.402;0.016;2023-03-01T14:44:56;3.40;;;1.10;;
24901;SDS011;31328;51.402;0.016;2023-03-01T14:49:58;3.57;;;1.70;;
24901;SDS011;31328;51.402;0.016;2023-03-01T14:52:34;2.53;;;1.40;;
24901;SDS011;31328;51.402;0.016;2023-03-01T14:55:15;2.93;;;1.17;;
24901;SDS011;31328;51.402;0.016;2023-03-01T14:57:45;3.60;;;1.17;;
24901;SDS011;31328;51.402;0.016;2023-03-01T15:00:24;2.17;;;0.80;;
24901;SDS011;31328;51.402;0.016;2023-03-01T15:02:56;2.67;;;0.93;;
24901;SDS011;31328;51.402;0.016;2023-03-01T15:05:35;2.53;;;0.93;;
24901;SDS011;31328;51.402;0.016;2023-03-01T15:08:02;2.43;;;0.90;;
24901;SDS011;31328;51.402;0.016;2023-03-01T15:10:31;5.10;;;2.60;;
24901;SDS011;31328;51.402;0.016;2023-03-01T15:13:13;1.90;;;0.90;;
24901;SDS011;31328;51.402;0.016;2023-03-01T15:15:46;1.43;;;1.10;;
24901;SDS011;31328;51.402;0.016;2023-03-01T15:18:18;2.13;;;1.00;;
24901;SDS011;31328;51.402;0.016;2023-03-01T15:20:47;2.93;;;1.50;;
24901;SDS011;31328;51.402;0.016;2023-03-01T15:23:21;4.70;;;1.20;;
24901;SDS011;31328;51.402;0.016;2023-03-01T15:25:53;2.53;;;1.40;;
24901;SDS011;31328;51.402;0.016;2023-03-01T15:28:26;4.57;;;1.40;;
24901;SDS011;31328;51.402;0.016;2023-03-01T15:30:56;2.63;;;1.03;;
24901;SDS011;31328;51.402;0.016;2023-03-01T15:33:30;2.17;;;0.83;;
24901;SDS011;31328;51.402;0.016;2023-03-01T15:35:59;1.97;;;1.17;;
24901;SDS011;31328;51.402;0.016;2023-03-01T15:38:50;3.23;;;1.30;;
24901;SDS011;31328;51.402;0.016;2023-03-01T15:41:24;2.47;;;1.33;;
24901;SDS011;31328;51.402;0.016;2023-03-01T15:43:53;3.27;;;2.03;;
24901;SDS011;31328;51.402;0.016;2023-03-01T15:46:22;2.83;;;1.33;;
24901;SDS011;31328;51.402;0.016;2023-03-01T15:49:02;2.57;;;1.33;;
24901;SDS011;31328;51.402;0.016;2023-03-01T15:51:34;1.53;;;1.23;;
24901;SDS011;31328;51.402;0.016;2023-03-01T15:54:04;2.17;;;1.20;;
24901;SDS011;31328;51.402;0.016;2023-03-01T15:56:44;3.13;;;1.30;;
24901;SDS011;31328;51.402;0.016;2023-03-01T15:59:10;3.17;;;1.30;;
24901;SDS011;31328;51.402;0.016;2023-03-01T16:01:40;2.97;;;1.63;;
24901;SDS011;31328;51.402;0.016;2023-03-01T16:04:08;3.40;;;1.57;;
24901;SDS011;31328;51.402;0.016;2023-03-01T16:06:37;3.93;;;1.27;;
24901;SDS011;31328;51.402;0.016;2023-03-01T16:09:05;3.10;;;0.97;;
24901;SDS011;31328;51.402;0.016;2023-03-01T16:11:31;1.97;;;1.10;;
24901;SDS011;31328;51.402;0.016;2023-03-01T16:13:59;3.63;;;1.20;;
24901;SDS011;31328;51.402;0.016;2023-03-01T16:16:26;2.57;;;1.10;;
24901;SDS011;31328;51.402;0.016;2023-03-01T16:18:52;2.87;;;1.00;;
24901;SDS011;31328;51.402;0.016;2023-03-01T16:21:20;3.27;;;0.80;;
24901;SDS011;31328;51.402;0.016;2023-03-01T16:23:48;3.50;;;1.23;;
24901;SDS011;31328;51.402;0.016;2023-03-01T16:26:16;2.30;;;1.00;;
24901;SDS011;31328;51.402;0.016;2023-03-01T16:28:44;3.20;;;1.30;;
24901;SDS011;31328;51.402;0.016;2023-03-01T16:31:11;4.50;;;1.80;;
24901;SDS011;31328;51.402;0.016;2023-03-01T16:33:40;8.93;;;2.50;;
24901;SDS011;31328;51.402;0.016;2023-03-01T16:36:07;2.33;;;1.90;;
24901;SDS011;31328;51.402;0.016;2023-03-01T16:38:34;9.30;;;2.83;;
24901;SDS011;31328;51.402;0.016;2023-03-01T16:41:01;3.47;;;1.80;;
24901;SDS011;31328;51.402;0.016;2023-03-01T16:43:27;4.37;;;1.53;;
24901;SDS011;31328;51.402;0.016;2023-03-01T16:45:56;1.87;;;1.40;;
24901;SDS011;31328;51.402;0.016;2023-03-01T16:48:24;2.70;;;1.60;;
24901;SDS011;31328;51.402;0.016;2023-03-01T16:51:00;3.10;;;2.23;;
24901;SDS011;31328;51.402;0.016;2023-03-01T16:53:27;5.67;;;2.30;;
24901;SDS011;31328;51.402;0.016;2023-03-01T16:55:57;3.20;;;1.97;;
24901;SDS011;31328;51.402;0.016;2023-03-01T16:58:24;2.50;;;1.20;;
24901;SDS011;31328;51.402;0.016;2023-03-01T17:00:51;3.00;;;1.57;;
24901;SDS011;31328;51.402;0.016;2023-03-01T17:03:23;2.17;;;1.50;;
24901;SDS011;31328;51.402;0.016;2023-03-01T17:05:50;4.20;;;2.10;;
24901;SDS011;31328;51.402;0.016;2023-03-01T17:08:16;3.60;;;1.50;;
24901;SDS011;31328;51.402;0.016;2023-03-01T17:10:43;5.27;;;1.60;;
24901;SDS011;31328;51.402;0.016;2023-03-01T17:13:10;1.97;;;1.70;;
24901;SDS011;31328;51.402;0.016;2023-03-01T17:15:40;2.80;;;1.37;;
24901;SDS011;31328;51.402;0.016;2023-03-01T17:18:07;1.70;;;0.90;;
24901;SDS011;31328;51.402;0.016;2023-03-01T17:20:34;4.80;;;1.70;;
24901;SDS011;31328;51.402;0.016;2023-03-01T17:23:01;2.83;;;1.10;;